sensor_id;sensor_type;location;lat;lon;timestamp;P1;durP1;ratioP1;P2;durP2;ratioP2
70369;SDS011;57790;51.356;-2.906;2024-01-07T00:00:47;7.80;;;1.90;;
70369;SDS011;57790;51.356;-2.906;2024-01-07T00:03:48;8.03;;;2.03;;
70369;SDS011;57790;51.356;-2.906;2024-01-07T00:06:48;7.27;;;1.80;;
70369;SDS011;57790;51.356;-2.906;2024-01-07T00:09:49;8.13;;;1.90;;
70369;SDS011;57790;51.356;-2.906;2024-01-07T00:12:49;4.93;;;1.60;;
70369;SDS011;57790;51.356;-2.906;2024-01-07T00:15:51;7.50;;;1.73;;
70369;SDS011;57790;51.356;-2.906;2024-01-07T00:18:53;8.32;;;1.77;;
70369;SDS011;57790;51.356;-2.906;2024-01-07T00:21:54;7.37;;;1.63;;
70369;SDS011;57790;51.356;-2.906;2024-01-07T00:24:54;7.10;;;2.00;;
70369;SDS011;57790;51.356;-2.906;2024-01-07T00:27:55;7.10;;;1.47;;
70369;SDS011;57790;51.356;-2.906;2024-01-07T00:30:55;5.95;;;1.27;;
70369;SDS011;57790;51.356;-2.906;2024-01-07T00:33:55;6.23;;;1.73;;
70369;SDS011;57790;51.356;-2.906;2024-01-07T00:36:56;5.67;;;1.33;;
70369;SDS011;57790;51.356;-2.906;2024-01-07T00:39:56;6.97;;;1.93;;
70369;SDS011;57790;51.356;-2.906;2024-01-07T00:42:57;7.17;;;1.30;;
70369;SDS011;57790;51.356;-2.906;2024-01-07T00:45:57;5.60;;;1.43;;
70369;SDS011;57790;51.356;-2.906;2024-01-07T00:48:57;6.10;;;1.40;;
70369;SDS011;57790;51.356;-2.906;2024-01-07T00:51:58;6.10;;;1.30;;
70369;SDS011;57790;51.356;-2.906;2024-01-07T00:54:58;5.97;;;1.10;;
70369;SDS011;57790;51.356;-2.906;2024-01-07T00:57:58;5.50;;;1.20;;
70369;SDS011;57790;51.356;-2.906;2024-01-07T01:00:59;5.23;;;1.20;;
70369;SDS011;57790;51.356;-2.906;2024-01-07T01:04:00;5.80;;;1.20;;
70369;SDS011;57790;51.356;-2.906;2024-01-07T01:07:00;4.85;;;1.00;;
70369;SDS011;57790;51.356;-2.906;2024-01-07T01:10:00;3.33;;;0.80;;
70369;SDS011;57790;51.356;-2.906;2024-01-07T01:13:01;6.17;;;1.17;;
70369;SDS011;57790;51.356;-2.906;2024-01-07T01:16:01;3.53;;;0.80;;
70369;SDS011;57790;51.356;-2.906;2024-01-07T01:19:02;6.87;;;1.63;;
70369;SDS011;57790;51.356;-2.906;2024-01-07T01:22:02;4.83;;;1.00;;
70369;SDS011;57790;51.356;-2.906;2024-01-07T01:25:03;4.13;;;1.00;;
70369;SDS011;57790;51.356;-2.906;2024-01-07T01:28:04;3.53;;;1.00;;
70369;SDS011;57790;51.356;-2.906;2024-01-07T01:31:04;4.67;;;1.10;;
70369;SDS011;57790;51.356;-2.906;2024-01-07T01:34:05;6.33;;;1.00;;
70369;SDS011;57790;51.356;-2.906;2024-01-07T01:37:07;4.47;;;1.00;;
70369;SDS011;57790;51.356;-2.906;2024-01-07T01:40:08;3.63;;;0.83;;
70369;SDS011;57790;51.356;-2.906;2024-01-07T01:43:09;5.13;;;1.17;;
70369;SDS011;57790;51.356;-2.906;2024-01-07T01:46:09;4.07;;;0.90;;
70369;SDS011;57790;51.356;-2.906;2024-01-07T01:49:10;4.13;;;1.00;;
70369;SDS011;57790;51.356;-2.906;2024-01-07T01:52:12;6.63;;;1.33;;
70369;SDS011;57790;51.356;-2.906;2024-01-07T01:55:13;6.63;;;1.35;;
70369;SDS011;57790;51.356;-2.906;2024-01-07T01:58:14;7.03;;;1.00;;
70369;SDS011;57790;51.356;-2.906;2024-01-07T02:01:17;5.45;;;1.30;;
70369;SDS011;57790;51.356;-2.906;2024-01-07T02:04:18;5.90;;;1.30;;
70369;SDS011;57790;51.356;-2.906;2024-01-07T02:07:18;6.13;;;1.03;;
70369;SDS011;57790;51.356;-2.906;2024-01-07T02:10:19;5.93;;;1.20;;
70369;SDS011;57790;51.356;-2.906;2024-01-07T02:13:19;4.37;;;1.10;;
70369;SDS011;57790;51.356;-2.906;2024-01-07T02:16:19;5.40;;;1.37;;
70369;SDS011;57790;51.356;-2.906;2024-01-07T02:19:20;4.60;;;1.30;;
70369;SDS011;57790;51.356;-2.906;2024-01-07T02:22:22;5.93;;;1.13;;
70369;SDS011;57790;51.356;-2.906;2024-01-07T02:25:22;5.80;;;1.33;;
70369;SDS011;57790;51.356;-2.906;2024-01-07T02:28:22;5.57;;;0.97;;
70369;SDS011;57790;51.356;-2.906;2024-01-07T02:31:23;4.43;;;0.88;;
70369;SDS011;57790;51.356;-2.906;2024-01-07T02:34:23;5.00;;;1.17;;
70369;SDS011;57790;51.356;-2.906;2024-01-07T02:37:23;6.37;;;1.20;;
70369;SDS011;57790;51.356;-2.906;2024-01-07T02:40:24;4.83;;;1.10;;
70369;SDS011;57790;51.356;-2.906;2024-01-07T02:43:24;5.07;;;1.20;;
70369;SDS011;57790;51.356;-2.906;2024-01-07T02:46:24;5.07;;;1.10;;
70369;SDS011;57790;51.356;-2.906;2024-01-07T02:49:25;4.10;;;1.17;;
70369;SDS011;57790;51.356;-2.906;2024-01-07T02:52:27;6.85;;;1.40;;
70369;SDS011;57790;51.356;-2.906;2024-01-07T02:55:27;5.67;;;1.10;;
70369;SDS011;57790;51.356;-2.906;2024-01-07T02:58:28;5.20;;;1.30;;
70369;SDS011;57790;51.356;-2.906;2024-01-07T03:01:28;5.05;;;1.20;;
70369;SDS011;57790;51.356;-2.906;2024-01-07T03:04:29;5.20;;;1.40;;
70369;SDS011;57790;51.356;-2.906;2024-01-07T03:07:29;6.03;;;1.07;;
70369;SDS011;57790;51.356;-2.906;2024-01-07T03:10:30;7.73;;;0.93;;
70369;SDS011;57790;51.356;-2.906;2024-01-07T03:13:30;4.67;;;1.20;;
70369;SDS011;57790;51.356;-2.906;2024-01-07T03:16:30;4.10;;;1.15;;
70369;SDS011;57790;51.356;-2.906;2024-01-07T03:19:31;5.23;;;1.10;;
70369;SDS011;57790;51.356;-2.906;2024-01-07T03:22:31;5.20;;;1.37;;
70369;SDS011;57790;51.356;-2.906;2024-01-07T03:25:32;4.97;;;1.17;;
70369;SDS011;57790;51.356;-2.906;2024-01-07T03:28:32;5.97;;;1.40;;
70369;SDS011;57790;51.356;-2.906;2024-01-07T03:31:32;4.70;;;1.30;;
70369;SDS011;57790;51.356;-2.906;2024-01-07T03:34:33;4.67;;;1.30;;
70369;SDS011;57790;51.356;-2.906;2024-01-07T03:37:33;4.78;;;1.30;;
70369;SDS011;57790;51.356;-2.906;2024-01-07T03:40:33;5.73;;;1.37;;
70369;SDS011;57790;51.356;-2.906;2024-01-07T03:43:34;5.87;;;1.20;;
70369;SDS011;57790;51.356;-2.906;2024-01-07T03:46:34;6.13;;;1.40;;
70369;SDS011;57790;51.356;-2.906;2024-01-07T03:49:38;5.00;;;1.60;;
70369;SDS011;57790;51.356;-2.906;2024-01-07T03:52:38;5.20;;;1.42;;
70369;SDS011;57790;51.356;-2.906;2024-01-07T03:55:38;7.87;;;1.70;;
70369;SDS011;57790;51.356;-2.906;2024-01-07T03:58:39;6.77;;;1.73;;
70369;SDS011;57790;51.356;-2.906;2024-01-07T04:01:39;5.18;;;1.52;;
70369;SDS011;57790;51.356;-2.906;2024-01-07T04:04:40;7.17;;;1.73;;
70369;SDS011;57790;51.356;-2.906;2024-01-07T04:07:40;7.40;;;1.80;;
70369;SDS011;57790;51.356;-2.906;2024-01-07T04:10:41;6.53;;;1.70;;
70369;SDS011;57790;51.356;-2.906;2024-01-07T04:13:41;6.85;;;1.67;;
70369;SDS011;57790;51.356;-2.906;2024-01-07T04:16:42;6.10;;;1.50;;
70369;SDS011;57790;51.356;-2.906;2024-01-07T04:19:42;9.50;;;1.90;;
70369;SDS011;57790;51.356;-2.906;2024-01-07T04:22:43;6.40;;;1.70;;
70369;SDS011;57790;51.356;-2.906;2024-01-07T04:25:43;6.13;;;2.07;;
70369;SDS011;57790;51.356;-2.906;2024-01-07T04:28:45;6.80;;;1.55;;
70369;SDS011;57790;51.356;-2.906;2024-01-07T04:31:45;7.47;;;1.70;;
70369;SDS011;57790;51.356;-2.906;2024-01-07T04:34:46;8.65;;;1.85;;
70369;SDS011;57790;51.356;-2.906;2024-01-07T04:37:46;6.77;;;1.40;;
70369;SDS011;57790;51.356;-2.906;2024-01-07T04:40:46;7.60;;;1.77;;
70369;SDS011;57790;51.356;-2.906;2024-01-07T04:43:47;7.37;;;1.53;;
70369;SDS011;57790;51.356;-2.906;2024-01-07T04:46:47;6.43;;;1.43;;
70369;SDS011;57790;51.356;-2.906;2024-01-07T04:49:48;5.22;;;1.38;;
70369;SDS011;57790;51.356;-2.906;2024-01-07T04:52:49;6.63;;;1.70;;
70369;SDS011;57790;51.356;-2.906;2024-01-07T04:55:49;7.27;;;1.60;;
70369;SDS011;57790;51.356;-2.906;2024-01-07T04:58:49;4.73;;;1.30;;
70369;SDS011;57790;51.356;-2.906;2024-01-07T05:01:50;7.13;;;1.70;;
70369;SDS011;57790;51.356;-2.906;2024-01-07T05:04:50;6.28;;;1.45;;
70369;SDS011;57790;51.356;-2.906;2024-01-07T05:07:50;7.77;;;1.60;;
70369;SDS011;57790;51.356;-2.906;2024-01-07T05:10:51;7.40;;;1.90;;
70369;SDS011;57790;51.356;-2.906;2024-01-07T05:13:51;6.17;;;1.60;;
70369;SDS011;57790;51.356;-2.906;2024-01-07T05:16:53;8.77;;;2.23;;
70369;SDS011;57790;51.356;-2.906;2024-01-07T05:19:56;8.95;;;1.75;;
70369;SDS011;57790;51.356;-2.906;2024-01-07T05:22:57;4.87;;;1.40;;
70369;SDS011;57790;51.356;-2.906;2024-01-07T05:25:59;5.97;;;1.53;;
70369;SDS011;57790;51.356;-2.906;2024-01-07T05:28:59;6.18;;;1.52;;
70369;SDS011;57790;51.356;-2.906;2024-01-07T05:32:00;6.13;;;1.70;;
70369;SDS011;57790;51.356;-2.906;2024-01-07T05:35:01;7.80;;;1.75;;
70369;SDS011;57790;51.356;-2.906;2024-01-07T05:38:02;6.33;;;1.60;;
70369;SDS011;57790;51.356;-2.906;2024-01-07T05:41:02;5.97;;;1.50;;
70369;SDS011;57790;51.356;-2.906;2024-01-07T05:44:02;7.13;;;1.67;;
70369;SDS011;57790;51.356;-2.906;2024-01-07T05:47:03;6.85;;;1.80;;
70369;SDS011;57790;51.356;-2.906;2024-01-07T05:50:04;7.17;;;1.90;;
70369;SDS011;57790;51.356;-2.906;2024-01-07T05:53:04;8.35;;;1.73;;
70369;SDS011;57790;51.356;-2.906;2024-01-07T05:56:05;7.13;;;2.03;;
70369;SDS011;57790;51.356;-2.906;2024-01-07T05:59:06;7.90;;;1.67;;
70369;SDS011;57790;51.356;-2.906;2024-01-07T06:02:07;5.73;;;1.73;;
70369;SDS011;57790;51.356;-2.906;2024-01-07T06:05:07;8.50;;;2.20;;
70369;SDS011;57790;51.356;-2.906;2024-01-07T06:08:08;6.90;;;1.77;;
70369;SDS011;57790;51.356;-2.906;2024-01-07T06:11:10;8.13;;;2.30;;
70369;SDS011;57790;51.356;-2.906;2024-01-07T06:14:18;8.65;;;2.15;;
70369;SDS011;57790;51.356;-2.906;2024-01-07T06:17:19;9.50;;;2.70;;
70369;SDS011;57790;51.356;-2.906;2024-01-07T06:20:19;9.87;;;2.20;;
70369;SDS011;57790;51.356;-2.906;2024-01-07T06:23:19;10.37;;;2.50;;
70369;SDS011;57790;51.356;-2.906;2024-01-07T06:26:20;7.30;;;2.17;;
70369;SDS011;57790;51.356;-2.906;2024-01-07T06:29:20;9.00;;;2.30;;
70369;SDS011;57790;51.356;-2.906;2024-01-07T06:32:21;8.60;;;2.47;;
70369;SDS011;57790;51.356;-2.906;2024-01-07T06:35:21;8.40;;;2.20;;
70369;SDS011;57790;51.356;-2.906;2024-01-07T06:38:22;7.45;;;2.42;;
70369;SDS011;57790;51.356;-2.906;2024-01-07T06:41:23;8.73;;;2.67;;
70369;SDS011;57790;51.356;-2.906;2024-01-07T06:44:24;9.48;;;2.20;;
70369;SDS011;57790;51.356;-2.906;2024-01-07T06:47:24;9.30;;;2.33;;
70369;SDS011;57790;51.356;-2.906;2024-01-07T06:50:25;7.63;;;2.30;;
70369;SDS011;57790;51.356;-2.906;2024-01-07T06:53:25;6.97;;;2.20;;
70369;SDS011;57790;51.356;-2.906;2024-01-07T06:56:25;7.87;;;2.30;;
70369;SDS011;57790;51.356;-2.906;2024-01-07T06:59:26;9.20;;;2.40;;
70369;SDS011;57790;51.356;-2.906;2024-01-07T07:02:26;8.63;;;2.80;;
70369;SDS011;57790;51.356;-2.906;2024-01-07T07:05:26;9.67;;;2.63;;
70369;SDS011;57790;51.356;-2.906;2024-01-07T07:08:27;8.27;;;2.20;;
70369;SDS011;57790;51.356;-2.906;2024-01-07T07:11:27;9.20;;;2.30;;
70369;SDS011;57790;51.356;-2.906;2024-01-07T07:14:28;9.47;;;2.70;;
70369;SDS011;57790;51.356;-2.906;2024-01-07T07:17:28;8.10;;;2.30;;
70369;SDS011;57790;51.356;-2.906;2024-01-07T07:20:28;8.82;;;2.90;;
70369;SDS011;57790;51.356;-2.906;2024-01-07T07:23:29;8.40;;;2.50;;
70369;SDS011;57790;51.356;-2.906;2024-01-07T07:26:30;7.77;;;2.20;;
70369;SDS011;57790;51.356;-2.906;2024-01-07T07:29:31;7.35;;;1.77;;
70369;SDS011;57790;51.356;-2.906;2024-01-07T07:32:31;8.47;;;2.57;;
70369;SDS011;57790;51.356;-2.906;2024-01-07T07:35:32;8.38;;;2.30;;
70369;SDS011;57790;51.356;-2.906;2024-01-07T07:38:32;7.83;;;2.47;;
70369;SDS011;57790;51.356;-2.906;2024-01-07T07:41:32;8.73;;;2.57;;
70369;SDS011;57790;51.356;-2.906;2024-01-07T07:44:33;8.93;;;2.10;;
70369;SDS011;57790;51.356;-2.906;2024-01-07T07:47:33;7.40;;;2.10;;
70369;SDS011;57790;51.356;-2.906;2024-01-07T07:50:34;8.40;;;2.70;;
70369;SDS011;57790;51.356;-2.906;2024-01-07T07:53:34;8.03;;;2.57;;
70369;SDS011;57790;51.356;-2.906;2024-01-07T07:56:37;9.60;;;2.55;;
70369;SDS011;57790;51.356;-2.906;2024-01-07T07:59:38;8.45;;;2.53;;
70369;SDS011;57790;51.356;-2.906;2024-01-07T08:02:39;8.10;;;2.30;;
70369;SDS011;57790;51.356;-2.906;2024-01-07T08:05:39;9.23;;;2.77;;
70369;SDS011;57790;51.356;-2.906;2024-01-07T08:08:41;8.73;;;2.50;;
70369;SDS011;57790;51.356;-2.906;2024-01-07T08:11:42;9.00;;;2.93;;
70369;SDS011;57790;51.356;-2.906;2024-01-07T08:14:42;7.60;;;2.70;;
70369;SDS011;57790;51.356;-2.906;2024-01-07T08:17:42;9.27;;;2.65;;
70369;SDS011;57790;51.356;-2.906;2024-01-07T08:20:44;8.90;;;2.67;;
70369;SDS011;57790;51.356;-2.906;2024-01-07T08:23:44;8.67;;;2.63;;
70369;SDS011;57790;51.356;-2.906;2024-01-07T08:26:44;9.97;;;2.60;;
70369;SDS011;57790;51.356;-2.906;2024-01-07T08:29:45;9.20;;;2.80;;
70369;SDS011;57790;51.356;-2.906;2024-01-07T08:32:45;8.73;;;2.83;;
70369;SDS011;57790;51.356;-2.906;2024-01-07T08:35:46;8.97;;;2.87;;
70369;SDS011;57790;51.356;-2.906;2024-01-07T08:38:46;8.77;;;3.23;;
70369;SDS011;57790;51.356;-2.906;2024-01-07T08:41:46;9.73;;;3.27;;
70369;SDS011;57790;51.356;-2.906;2024-01-07T08:44:47;10.73;;;3.10;;
70369;SDS011;57790;51.356;-2.906;2024-01-07T08:47:47;12.02;;;2.90;;
70369;SDS011;57790;51.356;-2.906;2024-01-07T08:50:48;9.00;;;2.97;;
70369;SDS011;57790;51.356;-2.906;2024-01-07T08:53:50;9.00;;;2.90;;
70369;SDS011;57790;51.356;-2.906;2024-01-07T08:56:50;8.87;;;2.90;;
70369;SDS011;57790;51.356;-2.906;2024-01-07T08:59:50;9.70;;;3.10;;
70369;SDS011;57790;51.356;-2.906;2024-01-07T09:02:51;10.83;;;2.87;;
70369;SDS011;57790;51.356;-2.906;2024-01-07T09:05:52;9.38;;;2.78;;
70369;SDS011;57790;51.356;-2.906;2024-01-07T09:08:52;10.23;;;2.97;;
70369;SDS011;57790;51.356;-2.906;2024-01-07T09:11:52;9.20;;;3.00;;
70369;SDS011;57790;51.356;-2.906;2024-01-07T09:14:53;9.80;;;3.10;;
70369;SDS011;57790;51.356;-2.906;2024-01-07T09:17:53;8.97;;;2.80;;
70369;SDS011;57790;51.356;-2.906;2024-01-07T09:20:54;8.77;;;3.08;;
70369;SDS011;57790;51.356;-2.906;2024-01-07T09:23:54;10.67;;;2.77;;
70369;SDS011;57790;51.356;-2.906;2024-01-07T09:26:55;9.90;;;3.20;;
70369;SDS011;57790;51.356;-2.906;2024-01-07T09:29:57;8.77;;;2.42;;
70369;SDS011;57790;51.356;-2.906;2024-01-07T09:32:57;9.50;;;2.57;;
70369;SDS011;57790;51.356;-2.906;2024-01-07T09:35:58;8.32;;;2.40;;
70369;SDS011;57790;51.356;-2.906;2024-01-07T09:38:58;7.83;;;2.53;;
70369;SDS011;57790;51.356;-2.906;2024-01-07T09:41:58;8.80;;;2.17;;
70369;SDS011;57790;51.356;-2.906;2024-01-07T09:45:01;7.57;;;2.40;;
70369;SDS011;57790;51.356;-2.906;2024-01-07T09:48:05;8.20;;;2.13;;
70369;SDS011;57790;51.356;-2.906;2024-01-07T09:51:06;10.33;;;2.50;;
70369;SDS011;57790;51.356;-2.906;2024-01-07T09:54:08;8.52;;;2.53;;
70369;SDS011;57790;51.356;-2.906;2024-01-07T09:57:15;8.70;;;1.80;;
70369;SDS011;57790;51.356;-2.906;2024-01-07T10:00:15;7.17;;;2.37;;
70369;SDS011;57790;51.356;-2.906;2024-01-07T10:03:16;6.30;;;1.57;;
70369;SDS011;57790;51.356;-2.906;2024-01-07T10:06:20;8.27;;;2.10;;
70369;SDS011;57790;51.356;-2.906;2024-01-07T10:09:24;8.40;;;2.13;;
70369;SDS011;57790;51.356;-2.906;2024-01-07T10:12:29;6.63;;;2.00;;
70369;SDS011;57790;51.356;-2.906;2024-01-07T10:15:31;8.27;;;1.92;;
70369;SDS011;57790;51.356;-2.906;2024-01-07T10:18:32;7.27;;;1.90;;
70369;SDS011;57790;51.356;-2.906;2024-01-07T10:21:34;7.10;;;1.88;;
70369;SDS011;57790;51.356;-2.906;2024-01-07T10:24:41;7.00;;;1.75;;
70369;SDS011;57790;51.356;-2.906;2024-01-07T10:27:43;6.40;;;2.10;;
70369;SDS011;57790;51.356;-2.906;2024-01-07T10:30:49;5.45;;;1.58;;
70369;SDS011;57790;51.356;-2.906;2024-01-07T10:33:51;6.57;;;1.80;;
70369;SDS011;57790;51.356;-2.906;2024-01-07T10:36:52;9.02;;;1.80;;
70369;SDS011;57790;51.356;-2.906;2024-01-07T10:39:59;6.93;;;1.92;;
70369;SDS011;57790;51.356;-2.906;2024-01-07T10:43:03;8.68;;;2.05;;
70369;SDS011;57790;51.356;-2.906;2024-01-07T10:46:04;6.97;;;1.90;;
70369;SDS011;57790;51.356;-2.906;2024-01-07T10:49:07;6.27;;;1.67;;
70369;SDS011;57790;51.356;-2.906;2024-01-07T10:52:18;7.10;;;1.85;;
70369;SDS011;57790;51.356;-2.906;2024-01-07T10:55:19;8.13;;;1.90;;
70369;SDS011;57790;51.356;-2.906;2024-01-07T10:58:22;7.70;;;1.97;;
70369;SDS011;57790;51.356;-2.906;2024-01-07T11:01:23;7.80;;;1.70;;
70369;SDS011;57790;51.356;-2.906;2024-01-07T11:04:37;9.20;;;2.03;;
70369;SDS011;57790;51.356;-2.906;2024-01-07T11:08:06;6.55;;;1.65;;
70369;SDS011;57790;51.356;-2.906;2024-01-07T11:11:15;7.35;;;1.73;;
70369;SDS011;57790;51.356;-2.906;2024-01-07T11:20:41;5.73;;;1.80;;
70369;SDS011;57790;51.356;-2.906;2024-01-07T11:23:43;6.05;;;1.48;;
70369;SDS011;57790;51.356;-2.906;2024-01-07T11:26:44;8.00;;;1.80;;
70369;SDS011;57790;51.356;-2.906;2024-01-07T11:29:52;7.13;;;1.70;;
70369;SDS011;57790;51.356;-2.906;2024-01-07T11:32:57;6.38;;;1.60;;
70369;SDS011;57790;51.356;-2.906;2024-01-07T11:36:02;7.30;;;1.40;;
70369;SDS011;57790;51.356;-2.906;2024-01-07T11:39:06;6.32;;;1.70;;
70369;SDS011;57790;51.356;-2.906;2024-01-07T11:42:08;5.70;;;1.67;;
70369;SDS011;57790;51.356;-2.906;2024-01-07T11:45:09;7.23;;;1.30;;
70369;SDS011;57790;51.356;-2.906;2024-01-07T11:48:10;4.88;;;1.40;;
70369;SDS011;57790;51.356;-2.906;2024-01-07T11:51:11;4.97;;;1.10;;
70369;SDS011;57790;51.356;-2.906;2024-01-07T11:54:11;4.30;;;1.30;;
70369;SDS011;57790;51.356;-2.906;2024-01-07T11:57:12;6.53;;;1.20;;
70369;SDS011;57790;51.356;-2.906;2024-01-07T12:00:13;5.13;;;1.37;;
70369;SDS011;57790;51.356;-2.906;2024-01-07T12:03:14;5.53;;;1.20;;
70369;SDS011;57790;51.356;-2.906;2024-01-07T12:06:15;4.13;;;1.30;;
70369;SDS011;57790;51.356;-2.906;2024-01-07T12:09:16;6.87;;;1.20;;
70369;SDS011;57790;51.356;-2.906;2024-01-07T12:12:16;5.43;;;1.30;;
70369;SDS011;57790;51.356;-2.906;2024-01-07T12:15:16;4.20;;;1.10;;
70369;SDS011;57790;51.356;-2.906;2024-01-07T12:18:17;4.80;;;1.23;;
70369;SDS011;57790;51.356;-2.906;2024-01-07T12:21:18;4.47;;;1.10;;
70369;SDS011;57790;51.356;-2.906;2024-01-07T12:24:24;5.07;;;1.20;;
70369;SDS011;57790;51.356;-2.906;2024-01-07T12:27:25;7.00;;;1.23;;
70369;SDS011;57790;51.356;-2.906;2024-01-07T12:30:25;5.03;;;1.27;;
70369;SDS011;57790;51.356;-2.906;2024-01-07T12:33:26;5.53;;;1.30;;
70369;SDS011;57790;51.356;-2.906;2024-01-07T12:36:31;7.33;;;1.43;;
70369;SDS011;57790;51.356;-2.906;2024-01-07T12:39:31;5.57;;;1.00;;
70369;SDS011;57790;51.356;-2.906;2024-01-07T12:42:32;4.77;;;1.40;;
70369;SDS011;57790;51.356;-2.906;2024-01-07T12:45:33;7.40;;;1.33;;
70369;SDS011;57790;51.356;-2.906;2024-01-07T12:48:33;6.28;;;1.25;;
70369;SDS011;57790;51.356;-2.906;2024-01-07T12:51:34;5.63;;;1.30;;
70369;SDS011;57790;51.356;-2.906;2024-01-07T12:54:34;5.40;;;1.33;;
70369;SDS011;57790;51.356;-2.906;2024-01-07T12:57:35;5.53;;;1.13;;
70369;SDS011;57790;51.356;-2.906;2024-01-07T13:00:35;4.60;;;1.20;;
70369;SDS011;57790;51.356;-2.906;2024-01-07T13:03:36;5.27;;;1.10;;
70369;SDS011;57790;51.356;-2.906;2024-01-07T13:06:36;9.80;;;1.27;;
70369;SDS011;57790;51.356;-2.906;2024-01-07T13:09:37;4.93;;;1.03;;
70369;SDS011;57790;51.356;-2.906;2024-01-07T13:12:37;4.60;;;1.13;;
70369;SDS011;57790;51.356;-2.906;2024-01-07T13:15:39;7.15;;;1.10;;
70369;SDS011;57790;51.356;-2.906;2024-01-07T13:18:41;5.40;;;1.20;;
70369;SDS011;57790;51.356;-2.906;2024-01-07T13:21:41;4.53;;;0.93;;
70369;SDS011;57790;51.356;-2.906;2024-01-07T13:24:41;6.47;;;1.50;;
70369;SDS011;57790;51.356;-2.906;2024-01-07T13:27:42;6.70;;;1.67;;
70369;SDS011;57790;51.356;-2.906;2024-01-07T13:30:42;8.87;;;1.97;;
70369;SDS011;57790;51.356;-2.906;2024-01-07T13:33:43;7.30;;;2.38;;
70369;SDS011;57790;51.356;-2.906;2024-01-07T13:36:43;10.00;;;2.60;;
70369;SDS011;57790;51.356;-2.906;2024-01-07T13:39:44;9.80;;;3.10;;
70369;SDS011;57790;51.356;-2.906;2024-01-07T13:42:45;10.50;;;3.08;;
70369;SDS011;57790;51.356;-2.906;2024-01-07T13:45:45;7.70;;;2.90;;
70369;SDS011;57790;51.356;-2.906;2024-01-07T13:48:46;9.17;;;3.17;;
70369;SDS011;57790;51.356;-2.906;2024-01-07T13:51:46;9.47;;;3.37;;
70369;SDS011;57790;51.356;-2.906;2024-01-07T13:54:46;9.80;;;2.95;;
70369;SDS011;57790;51.356;-2.906;2024-01-07T13:57:47;8.73;;;3.10;;
70369;SDS011;57790;51.356;-2.906;2024-01-07T14:00:50;8.67;;;2.90;;
70369;SDS011;57790;51.356;-2.906;2024-01-07T14:03:52;8.18;;;3.28;;
70369;SDS011;57790;51.356;-2.906;2024-01-07T14:06:55;8.10;;;2.83;;
70369;SDS011;57790;51.356;-2.906;2024-01-07T14:09:56;7.65;;;3.00;;
70369;SDS011;57790;51.356;-2.906;2024-01-07T14:12:56;8.40;;;2.33;;
70369;SDS011;57790;51.356;-2.906;2024-01-07T14:15:57;10.07;;;2.73;;
70369;SDS011;57790;51.356;-2.906;2024-01-07T14:18:57;8.77;;;2.60;;
70369;SDS011;57790;51.356;-2.906;2024-01-07T14:21:57;8.23;;;2.67;;
70369;SDS011;57790;51.356;-2.906;2024-01-07T14:24:58;8.27;;;2.40;;
70369;SDS011;57790;51.356;-2.906;2024-01-07T14:27:58;8.07;;;2.47;;
70369;SDS011;57790;51.356;-2.906;2024-01-07T14:30:59;8.17;;;2.70;;
70369;SDS011;57790;51.356;-2.906;2024-01-07T14:33:59;9.80;;;2.10;;
70369;SDS011;57790;51.356;-2.906;2024-01-07T14:36:59;5.17;;;1.50;;
70369;SDS011;57790;51.356;-2.906;2024-01-07T14:40:03;6.47;;;1.60;;
70369;SDS011;57790;51.356;-2.906;2024-01-07T14:43:04;7.32;;;1.92;;
70369;SDS011;57790;51.356;-2.906;2024-01-07T14:46:06;6.63;;;1.70;;
70369;SDS011;57790;51.356;-2.906;2024-01-07T14:49:07;6.20;;;1.60;;
70369;SDS011;57790;51.356;-2.906;2024-01-07T14:52:08;5.13;;;1.53;;
70369;SDS011;57790;51.356;-2.906;2024-01-07T14:55:08;5.33;;;1.60;;
70369;SDS011;57790;51.356;-2.906;2024-01-07T14:58:09;6.43;;;1.60;;
70369;SDS011;57790;51.356;-2.906;2024-01-07T15:01:09;7.00;;;1.60;;
70369;SDS011;57790;51.356;-2.906;2024-01-07T15:04:12;7.50;;;1.90;;
70369;SDS011;57790;51.356;-2.906;2024-01-07T15:07:13;7.60;;;2.00;;
70369;SDS011;57790;51.356;-2.906;2024-01-07T15:10:16;11.37;;;2.37;;
70369;SDS011;57790;51.356;-2.906;2024-01-07T15:13:18;9.40;;;2.50;;
70369;SDS011;57790;51.356;-2.906;2024-01-07T15:16:18;9.00;;;2.10;;
70369;SDS011;57790;51.356;-2.906;2024-01-07T15:19:19;7.40;;;1.77;;
70369;SDS011;57790;51.356;-2.906;2024-01-07T15:22:20;5.90;;;1.45;;
70369;SDS011;57790;51.356;-2.906;2024-01-07T15:25:21;5.33;;;1.60;;
70369;SDS011;57790;51.356;-2.906;2024-01-07T15:28:21;7.27;;;1.50;;
70369;SDS011;57790;51.356;-2.906;2024-01-07T15:31:21;6.13;;;1.13;;
70369;SDS011;57790;51.356;-2.906;2024-01-07T15:34:23;4.95;;;1.10;;
70369;SDS011;57790;51.356;-2.906;2024-01-07T15:37:23;4.30;;;1.00;;
70369;SDS011;57790;51.356;-2.906;2024-01-07T15:40:23;6.40;;;1.00;;
70369;SDS011;57790;51.356;-2.906;2024-01-07T15:43:24;5.75;;;1.20;;
70369;SDS011;57790;51.356;-2.906;2024-01-07T15:46:25;4.50;;;1.10;;
70369;SDS011;57790;51.356;-2.906;2024-01-07T15:49:25;7.07;;;1.30;;
70369;SDS011;57790;51.356;-2.906;2024-01-07T15:52:26;6.30;;;1.00;;
70369;SDS011;57790;51.356;-2.906;2024-01-07T15:55:28;3.97;;;1.02;;
70369;SDS011;57790;51.356;-2.906;2024-01-07T15:58:28;5.87;;;1.17;;
70369;SDS011;57790;51.356;-2.906;2024-01-07T16:01:33;8.15;;;1.05;;
70369;SDS011;57790;51.356;-2.906;2024-01-07T16:04:36;5.53;;;1.15;;
70369;SDS011;57790;51.356;-2.906;2024-01-07T16:07:37;7.70;;;1.20;;
70369;SDS011;57790;51.356;-2.906;2024-01-07T16:10:37;8.10;;;1.07;;
70369;SDS011;57790;51.356;-2.906;2024-01-07T16:13:38;3.77;;;0.80;;
70369;SDS011;57790;51.356;-2.906;2024-01-07T16:16:38;4.50;;;0.93;;
70369;SDS011;57790;51.356;-2.906;2024-01-07T16:19:41;3.65;;;0.73;;
70369;SDS011;57790;51.356;-2.906;2024-01-07T16:22:41;4.30;;;0.90;;
70369;SDS011;57790;51.356;-2.906;2024-01-07T16:25:42;4.43;;;0.80;;
70369;SDS011;57790;51.356;-2.906;2024-01-07T16:28:42;4.10;;;0.93;;
70369;SDS011;57790;51.356;-2.906;2024-01-07T16:31:43;5.43;;;1.10;;
70369;SDS011;57790;51.356;-2.906;2024-01-07T16:34:44;4.13;;;1.10;;
70369;SDS011;57790;51.356;-2.906;2024-01-07T16:37:44;4.03;;;0.93;;
70369;SDS011;57790;51.356;-2.906;2024-01-07T16:40:44;6.83;;;1.40;;
70369;SDS011;57790;51.356;-2.906;2024-01-07T16:43:45;4.03;;;1.00;;
70369;SDS011;57790;51.356;-2.906;2024-01-07T16:46:45;7.07;;;1.00;;
70369;SDS011;57790;51.356;-2.906;2024-01-07T16:49:45;5.57;;;1.00;;
70369;SDS011;57790;51.356;-2.906;2024-01-07T16:52:46;4.97;;;1.10;;
70369;SDS011;57790;51.356;-2.906;2024-01-07T16:55:46;4.80;;;0.88;;
70369;SDS011;57790;51.356;-2.906;2024-01-07T16:58:47;6.27;;;1.17;;
70369;SDS011;57790;51.356;-2.906;2024-01-07T17:01:47;5.43;;;1.30;;
70369;SDS011;57790;51.356;-2.906;2024-01-07T17:04:48;4.57;;;1.07;;
70369;SDS011;57790;51.356;-2.906;2024-01-07T17:07:48;3.80;;;0.98;;
70369;SDS011;57790;51.356;-2.906;2024-01-07T17:10:49;5.20;;;1.00;;
70369;SDS011;57790;51.356;-2.906;2024-01-07T17:13:49;4.17;;;1.10;;
70369;SDS011;57790;51.356;-2.906;2024-01-07T17:16:49;4.23;;;0.97;;
70369;SDS011;57790;51.356;-2.906;2024-01-07T17:19:52;6.00;;;1.02;;
70369;SDS011;57790;51.356;-2.906;2024-01-07T17:22:52;5.20;;;1.00;;
70369;SDS011;57790;51.356;-2.906;2024-01-07T17:25:53;4.57;;;1.10;;
70369;SDS011;57790;51.356;-2.906;2024-01-07T17:28:54;4.22;;;1.05;;
70369;SDS011;57790;51.356;-2.906;2024-01-07T17:31:55;8.52;;;1.38;;
70369;SDS011;57790;51.356;-2.906;2024-01-07T17:34:56;4.70;;;1.20;;
70369;SDS011;57790;51.356;-2.906;2024-01-07T17:37:56;5.90;;;1.40;;
70369;SDS011;57790;51.356;-2.906;2024-01-07T17:40:56;5.77;;;1.10;;
70369;SDS011;57790;51.356;-2.906;2024-01-07T17:43:57;4.73;;;1.10;;
70369;SDS011;57790;51.356;-2.906;2024-01-07T17:46:57;5.50;;;1.20;;
70369;SDS011;57790;51.356;-2.906;2024-01-07T17:49:58;5.32;;;1.10;;
70369;SDS011;57790;51.356;-2.906;2024-01-07T17:52:58;6.37;;;1.50;;
70369;SDS011;57790;51.356;-2.906;2024-01-07T17:56:02;5.53;;;1.67;;
70369;SDS011;57790;51.356;-2.906;2024-01-07T17:59:03;7.70;;;1.70;;